TimeCST,TemperatureF,Dew PointF,Humidity,Sea Level PressureIn,VisibilityMPH,Wind Direction,Wind SpeedMPH,Gust SpeedMPH,PrecipitationIn,Events,Conditions,WindDirDegrees,DateUTC
12:15 AM,32.2,29.1,88,29.80,10.0,South,10.4,-,N/A,,Clear,190,2013-12-29 06:15:00
12:35 AM,31.5,28.6,89,29.80,10.0,South,11.5,-,N/A,,Clear,190,2013-12-29 06:35:00
12:55 AM,30.9,28.8,92,29.80,10.0,South,12.7,-,N/A,,Clear,190,2013-12-29 06:55:00
1:15 AM,31.1,29.1,92,29.79,10.0,South,10.4,-,N/A,,Clear,190,2013-12-29 07:15:00
1:35 AM,31.6,29.3,91,29.78,10.0,SSW,11.5,-,N/A,,Clear,200,2013-12-29 07:35:00
1:55 AM,32.0,29.1,89,29.79,10.0,SSW,9.2,-,N/A,,Clear,200,2013-12-29 07:55:00
2:15 AM,32.0,28.9,88,29.78,10.0,SSW,10.4,-,N/A,,Clear,210,2013-12-29 08:15:00
2:35 AM,32.0,28.9,88,29.77,10.0,SSW,8.1,-,N/A,,Clear,200,2013-12-29 08:35:00
2:55 AM,31.6,28.4,88,29.78,10.0,SSW,9.2,-,N/A,,Clear,210,2013-12-29 08:55:00
3:15 AM,32.0,28.6,87,29.78,10.0,SSW,6.9,-,N/A,,Clear,210,2013-12-29 09:15:00
3:35 AM,33.4,28.9,84,29.78,10.0,WSW,9.2,-,N/A,,Clear,240,2013-12-29 09:35:00
3:55 AM,34.3,28.8,80,29.77,10.0,West,9.2,-,N/A,,Clear,270,2013-12-29 09:55:00
4:15 AM,34.5,28.9,80,29.76,10.0,West,15.0,-,N/A,,Clear,270,2013-12-29 10:15:00
4:35 AM,33.4,28.4,82,29.76,10.0,West,11.5,18.4,N/A,,Clear,270,2013-12-29 10:35:00
4:55 AM,32.9,28.2,83,29.77,10.0,West,11.5,18.4,N/A,,Clear,270,2013-12-29 10:55:00
5:15 AM,31.8,27.5,84,29.77,10.0,West,13.8,-,N/A,,Clear,280,2013-12-29 11:15:00
5:35 AM,30.9,27.5,87,29.78,10.0,WNW,10.4,-,N/A,,Clear,290,2013-12-29 11:35:00
5:55 AM,30.6,27.7,89,29.78,10.0,WNW,13.8,-,N/A,,Scattered Clouds,300,2013-12-29 11:55:00
6:15 AM,31.5,28.9,90,29.78,10.0,WNW,13.8,-,N/A,,Mostly Cloudy,300,2013-12-29 12:15:00
6:35 AM,31.6,29.3,91,29.78,7.0,WNW,12.7,-,N/A,,Mostly Cloudy,300,2013-12-29 12:35:00
6:55 AM,32.0,30.0,92,29.79,7.0,WNW,13.8,-,N/A,,Overcast,300,2013-12-29 12:55:00
7:15 AM,32.0,30.2,93,29.80,7.0,WNW,13.8,-,N/A,,Overcast,300,2013-12-29 13:15:00
7:35 AM,32.2,30.6,94,29.82,5.0,WNW,13.8,18.4,N/A,,Overcast,300,2013-12-29 13:35:00
7:55 AM,32.2,30.6,94,29.82,5.0,NW,12.7,16.1,N/A,,Overcast,310,2013-12-29 13:55:00
8:15 AM,32.9,29.5,87,29.82,5.0,NNW,12.7,19.6,N/A,,Overcast,330,2013-12-29 14:15:00
8:35 AM,32.4,29.3,88,29.84,4.0,NNW,12.7,20.7,N/A,,Overcast,330,2013-12-29 14:35:00
8:55 AM,32.0,29.3,90,29.84,4.0,NNW,15.0,20.7,N/A,,Overcast,340,2013-12-29 14:55:00
9:15 AM,30.9,29.1,93,29.86,2.0,North,20.7,25.3,N/A,,Overcast,350,2013-12-29 15:15:00
9:35 AM,30.6,28.8,93,29.87,2.5,North,18.4,26.5,N/A,,Overcast,350,2013-12-29 15:35:00
9:55 AM,29.3,27.5,93,29.88,2.0,North,24.2,27.6,N/A,,Overcast,360,2013-12-29 15:55:00
10:15 AM,28.4,26.6,93,29.90,1.8,North,17.3,25.3,N/A,,Overcast,350,2013-12-29 16:15:00
10:35 AM,27.3,25.3,92,29.91,2.0,North,20.7,28.8,N/A,,Overcast,360,2013-12-29 16:35:00
10:55 AM,27.0,24.4,90,29.92,3.0,North,16.1,25.3,N/A,,Overcast,350,2013-12-29 16:55:00
11:15 AM,26.4,24.6,93,29.92,2.5,North,17.3,23.0,N/A,,Overcast,360,2013-12-29 17:15:00
11:35 AM,26.2,24.1,92,29.92,2.0,NNW,18.4,23.0,N/A,,Overcast,340,2013-12-29 17:35:00
11:55 AM,25.3,23.4,92,29.92,2.0,North,17.3,25.3,N/A,,Overcast,350,2013-12-29 17:55:00
12:15 PM,24.6,22.6,92,29.93,2.0,NNW,17.3,24.2,N/A,,Overcast,340,2013-12-29 18:15:00
12:35 PM,23.9,22.3,94,29.94,1.8,NNW,13.8,23.0,N/A,,Overcast,330,2013-12-29 18:35:00
12:55 PM,23.0,21.0,92,29.94,2.5,NNW,17.3,25.3,N/A,,Overcast,340,2013-12-29 18:55:00
1:15 PM,22.5,19.9,90,29.95,5.0,North,16.1,-,N/A,,Overcast,350,2013-12-29 19:15:00
1:35 PM,22.5,19.2,87,29.96,7.0,NNW,12.7,-,N/A,,Overcast,340,2013-12-29 19:35:00
1:55 PM,21.9,18.7,87,29.96,10.0,NNW,16.1,19.6,N/A,,Overcast,340,2013-12-29 19:55:00
2:15 PM,21.7,17.6,84,29.97,10.0,NNW,15.0,20.7,N/A,,Overcast,340,2013-12-29 20:15:00
2:35 PM,21.4,17.1,83,29.98,10.0,NNW,15.0,21.9,N/A,,Overcast,340,2013-12-29 20:35:00
2:55 PM,21.2,16.5,82,29.99,10.0,NW,13.8,18.4,N/A,,Overcast,320,2013-12-29 20:55:00
3:15 PM,20.8,15.3,79,30.01,10.0,NW,11.5,18.4,N/A,,Overcast,320,2013-12-29 21:15:00
3:35 PM,20.3,13.5,75,30.01,10.0,NNW,16.1,-,N/A,,Overcast,330,2013-12-29 21:35:00
3:55 PM,20.3,13.3,74,30.02,10.0,NNW,12.7,18.4,N/A,,Overcast,330,2013-12-29 21:55:00
4:15 PM,19.9,13.1,75,30.03,10.0,NNW,12.7,18.4,N/A,,Overcast,330,2013-12-29 22:15:00
4:35 PM,19.8,12.9,75,30.04,10.0,NNW,11.5,-,N/A,,Overcast,330,2013-12-29 22:35:00
4:55 PM,19.8,12.4,73,30.05,10.0,NW,8.1,-,N/A,,Overcast,320,2013-12-29 22:55:00
5:15 PM,19.4,12.6,75,30.05,10.0,NW,11.5,-,N/A,,Overcast,310,2013-12-29 23:15:00
5:35 PM,19.2,11.5,72,30.06,10.0,NW,9.2,-,N/A,,Overcast,320,2013-12-29 23:35:00
5:55 PM,19.0,11.8,74,30.07,10.0,NW,6.9,-,N/A,,Overcast,320,2013-12-29 23:55:00
6:15 PM,18.9,12.6,76,30.08,10.0,NW,15.0,20.7,N/A,,Overcast,310,2013-12-30 00:15:00
6:35 PM,17.8,11.8,78,30.09,10.0,WNW,12.7,18.4,N/A,Snow,Light Snow,300,2013-12-30 00:35:00
6:55 PM,16.5,11.1,79,30.09,10.0,WNW,13.8,21.9,N/A,Snow,Light Snow,300,2013-12-30 00:55:00
7:15 PM,16.0,10.4,79,30.11,10.0,WNW,12.7,20.7,N/A,Snow,Light Snow,300,2013-12-30 01:15:00
7:35 PM,15.8,10.2,79,30.12,10.0,NW,13.8,-,N/A,,Overcast,320,2013-12-30 01:35:00
7:55 PM,14.7,7.7,74,30.12,10.0,NNW,13.8,18.4,N/A,,Overcast,340,2013-12-30 01:55:00
8:15 PM,13.6,6.6,74,30.13,10.0,NNW,12.7,18.4,N/A,,Overcast,330,2013-12-30 02:15:00
8:35 PM,12.9,5.7,73,30.14,10.0,NNW,13.8,23.0,N/A,,Overcast,340,2013-12-30 02:35:00
8:55 PM,12.6,5.0,72,30.14,10.0,NW,11.5,19.6,N/A,,Overcast,320,2013-12-30 02:55:00
9:15 PM,12.0,4.5,72,30.15,10.0,NW,10.4,-,N/A,,Overcast,320,2013-12-30 03:15:00
9:35 PM,11.1,3.4,71,30.15,10.0,NNW,11.5,-,N/A,,Overcast,330,2013-12-30 03:35:00
9:55 PM,10.4,2.3,70,30.16,10.0,NW,12.7,17.3,N/A,,Overcast,320,2013-12-30 03:55:00
10:15 PM,10.0,2.1,70,30.16,10.0,NW,11.5,-,N/A,,Overcast,320,2013-12-30 04:15:00
10:35 PM,9.5,1.9,71,30.17,10.0,NNW,10.4,-,N/A,,Overcast,330,2013-12-30 04:35:00
10:55 PM,8.4,1.2,73,30.17,10.0,NW,11.5,-,N/A,,Overcast,320,2013-12-30 04:55:00
11:15 PM,7.7,0.5,72,30.19,10.0,NW,11.5,18.4,N/A,,Overcast,320,2013-12-30 05:15:00
11:35 PM,7.2,0.3,74,30.19,10.0,NW,12.7,-,N/A,,Overcast,310,2013-12-30 05:35:00
11:55 PM,6.3,-0.4,74,30.19,10.0,NW,12.7,-,N/A,,Overcast,310,2013-12-30 05:55:00